createdAt,value
2018-08-22T04:00:53.273Z,1012.49
2018-08-22T04:01:53.148Z,1012.47
2018-08-22T04:03:45.852Z,1012.48
2018-08-22T04:04:45.726Z,1012.45
2018-08-22T04:06:38.434Z,1012.47
2018-08-22T04:07:38.303Z,1012.44
2018-08-22T04:09:30.985Z,1012.43
2018-08-22T04:10:30.881Z,1012.45
2018-08-22T04:12:23.580Z,1012.45
2018-08-22T04:13:23.459Z,1012.46
2018-08-22T04:15:16.140Z,1012.44
2018-08-22T04:16:16.038Z,1012.44
2018-08-22T04:18:08.739Z,1012.42
2018-08-22T04:19:08.608Z,1012.42
2018-08-22T04:21:01.296Z,1012.44
2018-08-22T04:22:01.199Z,1012.48
2018-08-22T04:23:53.894Z,1012.49
2018-08-22T04:24:53.768Z,1012.48
2018-08-22T04:26:46.465Z,1012.43
2018-08-22T04:27:46.350Z,1012.42
2018-08-22T04:29:39.033Z,1012.47
2018-08-22T04:30:38.928Z,1012.44
2018-08-22T04:32:31.628Z,1012.43
2018-08-22T04:33:31.510Z,1012.41
2018-08-22T04:35:24.195Z,1012.44
2018-08-22T04:36:24.090Z,1012.42
2018-08-22T04:38:16.790Z,1012.45
2018-08-22T04:39:16.675Z,1012.42
2018-08-22T04:41:09.351Z,1012.39
2018-08-22T04:42:09.257Z,1012.41
2018-08-22T04:44:01.951Z,1012.39
2018-08-22T04:45:01.830Z,1012.39
2018-08-22T04:46:54.535Z,1012.45
2018-08-22T04:47:54.414Z,1012.47
2018-08-22T04:49:47.089Z,1012.50
2018-08-22T04:50:46.992Z,1012.48
2018-08-22T04:52:40.183Z,1012.48
2018-08-22T04:53:40.057Z,1012.46
2018-08-22T04:55:32.739Z,1012.44
2018-08-22T04:56:32.640Z,1012.46
2018-08-22T04:58:25.344Z,1012.41
2018-08-22T04:59:25.220Z,1012.45
2018-08-22T05:01:17.909Z,1012.43
2018-08-22T05:02:17.809Z,1012.42
2018-08-22T05:04:10.658Z,1012.42
2018-08-22T05:05:10.399Z,1012.47
2018-08-22T05:07:03.093Z,1012.47
2018-08-22T05:08:02.980Z,1012.54
2018-08-22T05:09:55.656Z,1012.52
2018-08-22T05:10:55.555Z,1012.51
2018-08-22T05:12:48.257Z,1012.48
2018-08-22T05:13:48.139Z,1012.45
2018-08-22T05:15:40.819Z,1012.42
2018-08-22T05:16:40.759Z,1012.44
2018-08-22T05:18:33.411Z,1012.43
2018-08-22T05:19:33.300Z,1012.44
2018-08-22T05:21:26.002Z,1012.45
2018-08-22T05:22:25.881Z,1012.45
2018-08-22T05:24:18.564Z,1012.48
2018-08-22T05:25:18.466Z,1012.50
2018-08-22T05:27:11.164Z,1012.41
2018-08-22T05:28:11.038Z,1012.46
2018-08-22T05:30:03.763Z,1012.41
2018-08-22T05:31:03.623Z,1012.40
2018-08-22T05:32:56.373Z,1012.47
2018-08-22T05:33:56.215Z,1012.43
2018-08-22T05:35:48.901Z,1012.38
2018-08-22T05:36:48.797Z,1012.36
2018-08-22T05:38:41.508Z,1012.36
2018-08-22T05:39:41.389Z,1012.35
2018-08-22T05:41:34.090Z,1012.36
2018-08-22T05:42:33.961Z,1012.36
2018-08-22T05:44:26.673Z,1012.30
2018-08-22T05:45:26.565Z,1012.32
2018-08-22T05:47:19.261Z,1012.34
2018-08-22T05:48:19.139Z,1012.32
2018-08-22T05:50:11.832Z,1012.31
2018-08-22T05:51:11.729Z,1012.35
2018-08-22T05:53:04.437Z,1012.38
2018-08-22T05:54:04.310Z,1012.37
2018-08-22T05:55:57.000Z,1012.35
2018-08-22T05:56:56.912Z,1012.38
2018-08-22T05:58:49.625Z,1012.36
2018-08-22T05:59:49.500Z,1012.37
2018-08-22T06:01:42.219Z,1012.41
2018-08-22T06:02:42.089Z,1012.36
2018-08-22T06:04:34.776Z,1012.40
2018-08-22T06:05:34.672Z,1012.40
2018-08-22T06:07:27.374Z,1012.40
2018-08-22T06:08:27.248Z,1012.43
2018-08-22T06:10:19.966Z,1012.46
2018-08-22T06:11:19.857Z,1012.42
2018-08-22T06:13:12.564Z,1012.45
2018-08-22T06:14:12.447Z,1012.44
2018-08-22T06:16:05.129Z,1012.44
2018-08-22T06:17:05.032Z,1012.41
2018-08-22T06:18:57.878Z,1012.38
2018-08-22T06:19:57.617Z,1012.36
2018-08-22T06:21:50.316Z,1012.38
2018-08-22T06:22:50.202Z,1012.39
2018-08-22T06:24:42.921Z,1012.43
2018-08-22T06:25:42.822Z,1012.43
2018-08-22T06:27:35.537Z,1012.44
2018-08-22T06:28:35.409Z,1012.44
2018-08-22T06:30:28.098Z,1012.42
2018-08-22T06:31:27.994Z,1012.39
2018-08-22T06:33:20.722Z,1012.42
2018-08-22T06:34:20.607Z,1012.41
2018-08-22T06:36:13.297Z,1012.40
2018-08-22T06:37:13.193Z,1012.44
2018-08-22T06:39:05.900Z,1012.43
2018-08-22T06:40:05.785Z,1012.36
2018-08-22T06:41:58.499Z,1012.37
2018-08-22T06:42:58.370Z,1012.41
2018-08-22T06:44:51.061Z,1012.42
2018-08-22T06:45:50.971Z,1012.38
2018-08-22T06:47:43.670Z,1012.45
2018-08-22T06:48:43.554Z,1012.42
2018-08-22T06:50:36.237Z,1012.46
2018-08-22T06:51:36.136Z,1012.48
2018-08-22T06:53:28.851Z,1012.84
2018-08-22T06:54:28.734Z,1012.78
2018-08-22T06:56:21.440Z,1012.54
2018-08-22T06:57:21.336Z,1012.60
2018-08-22T06:59:14.046Z,1012.45
2018-08-22T07:00:13.926Z,1012.42
2018-08-22T07:02:06.641Z,1012.39
2018-08-22T07:03:06.541Z,1012.37
2018-08-22T07:04:59.227Z,1012.46
2018-08-22T07:05:59.139Z,1012.22
2018-08-22T07:07:51.893Z,1012.25
2018-08-22T07:08:51.739Z,1012.22
2018-08-22T07:10:44.443Z,1012.15
2018-08-22T07:11:44.321Z,1012.37
2018-08-22T07:13:37.036Z,1012.16
2018-08-22T07:14:36.925Z,1012.09
2018-08-22T07:16:29.640Z,1012.10
2018-08-22T07:17:29.519Z,1012.14
2018-08-22T07:19:22.840Z,1012.14
2018-08-22T07:20:22.122Z,1012.12
2018-08-22T07:22:14.826Z,1012.15
2018-08-22T07:23:14.715Z,1012.11
2018-08-22T07:25:07.407Z,1012.05
2018-08-22T07:26:07.310Z,1012.11
2018-08-22T07:28:00.015Z,1012.09
2018-08-22T07:28:59.900Z,1012.07
2018-08-22T07:30:52.597Z,1012.19
2018-08-22T07:31:52.502Z,1012.18
2018-08-22T07:33:45.200Z,1012.47
2018-08-22T07:34:45.085Z,1012.40
2018-08-22T07:36:37.801Z,1012.44
2018-08-22T07:37:37.681Z,1012.50
2018-08-22T07:39:30.409Z,1012.54
2018-08-22T07:40:30.295Z,1012.55
2018-08-22T07:42:23.012Z,1012.66
2018-08-22T07:43:22.915Z,1012.65
2018-08-22T07:45:15.604Z,1012.69
2018-08-22T07:46:15.514Z,1012.66
2018-08-22T07:48:08.263Z,1012.66
2018-08-22T07:49:08.169Z,1012.70
2018-08-22T07:51:00.863Z,1012.70
2018-08-22T07:52:00.773Z,1012.71
2018-08-22T07:53:53.508Z,1012.72
2018-08-22T07:54:53.387Z,1012.68
2018-08-22T07:56:46.103Z,1012.65
2018-08-22T07:57:46.008Z,1012.68
2018-08-22T07:59:38.757Z,1012.72
2018-08-22T08:00:38.624Z,1012.76
2018-08-22T08:02:31.336Z,1012.61
2018-08-22T08:03:31.234Z,1012.65
2018-08-22T08:05:24.034Z,1012.70
2018-08-22T08:06:23.852Z,1012.69
2018-08-22T08:08:16.591Z,1012.70
2018-08-22T08:09:16.481Z,1012.68
2018-08-22T08:11:09.172Z,1012.72
2018-08-22T08:12:09.083Z,1012.69
2018-08-22T08:14:01.810Z,1012.71
2018-08-22T08:15:01.704Z,1012.72
2018-08-22T08:16:54.426Z,1012.67
2018-08-22T08:17:54.317Z,1012.62
2018-08-22T08:19:47.016Z,1012.50
2018-08-22T08:20:46.916Z,1012.49
2018-08-22T08:22:39.642Z,1012.42
2018-08-22T08:23:39.542Z,1012.36
2018-08-22T08:25:32.245Z,1012.21
2018-08-22T08:26:32.150Z,1012.16
2018-08-22T08:28:24.878Z,1012.13
2018-08-22T08:29:24.757Z,1012.15
2018-08-22T08:31:17.615Z,1012.09
2018-08-22T08:32:17.375Z,1012.14
2018-08-22T08:34:10.086Z,1012.05
2018-08-22T08:35:09.982Z,1012.04
2018-08-22T08:37:02.695Z,1011.97
2018-08-22T08:38:02.621Z,1011.96
2018-08-22T08:39:55.287Z,1011.93
2018-08-22T08:40:55.215Z,1011.94
2018-08-22T08:42:47.910Z,1011.90
2018-08-22T08:43:47.796Z,1011.89
2018-08-22T08:45:40.495Z,1011.91
2018-08-22T08:46:40.398Z,1011.90
2018-08-22T08:48:33.105Z,1011.88
2018-08-22T08:49:33.079Z,1011.91
2018-08-22T08:51:25.710Z,1011.90
2018-08-22T08:52:25.629Z,1011.88
2018-08-22T08:54:18.332Z,1011.86
2018-08-22T08:55:18.218Z,1011.83
2018-08-22T08:57:10.950Z,1011.84
2018-08-22T08:58:10.816Z,1011.82
2018-08-22T09:00:03.516Z,1011.79
2018-08-22T09:01:03.417Z,1011.80
2018-08-22T09:02:56.141Z,1011.74
2018-08-22T09:03:56.046Z,1011.71
2018-08-22T09:05:48.711Z,1011.72
2018-08-22T09:06:48.620Z,1011.66
2018-08-22T09:08:41.330Z,1011.68
2018-08-22T09:09:41.213Z,1011.67
2018-08-22T09:11:33.925Z,1011.65
2018-08-22T09:12:33.832Z,1011.65
2018-08-22T09:14:26.540Z,1011.61
2018-08-22T09:15:26.444Z,1011.61
2018-08-22T09:17:19.161Z,1011.64
2018-08-22T09:18:19.024Z,1011.63
2018-08-22T09:20:11.740Z,1011.58
2018-08-22T09:21:11.687Z,1011.55
2018-08-22T09:23:04.325Z,1011.50
2018-08-22T09:24:04.276Z,1011.54
2018-08-22T09:25:56.918Z,1011.52
2018-08-22T09:26:56.812Z,1011.54
2018-08-22T09:28:49.522Z,1011.51
2018-08-22T09:29:49.426Z,1011.49
2018-08-22T09:31:42.592Z,1011.46
2018-08-22T09:32:42.500Z,1011.47
2018-08-22T09:34:35.213Z,1011.49
2018-08-22T09:35:35.173Z,1011.45
2018-08-22T09:37:27.811Z,1011.45
2018-08-22T09:38:27.699Z,1011.48
2018-08-22T09:40:20.392Z,1011.45
2018-08-22T09:41:20.292Z,1011.45
2018-08-22T09:43:13.016Z,1011.48
2018-08-22T09:44:12.905Z,1011.49
2018-08-22T09:46:05.593Z,1011.42
2018-08-22T09:47:05.515Z,1011.40
2018-08-22T09:48:58.206Z,1011.38
2018-08-22T09:49:58.089Z,1011.38
2018-08-22T09:51:50.787Z,1011.35
2018-08-22T09:52:50.680Z,1011.36
2018-08-22T09:54:43.519Z,1011.30
2018-08-22T09:55:43.280Z,1011.34
2018-08-22T09:57:35.999Z,1011.32
2018-08-22T09:58:35.915Z,1011.33
2018-08-22T10:00:28.581Z,1011.33
2018-08-22T10:01:28.486Z,1011.29
2018-08-22T10:03:21.193Z,1011.26
2018-08-22T10:04:21.090Z,1011.27
2018-08-22T10:06:13.849Z,1011.20
2018-08-22T10:07:13.848Z,1011.19
2018-08-22T10:09:06.397Z,1011.12
2018-08-22T10:10:06.302Z,1011.12
2018-08-22T10:11:58.983Z,1011.08
2018-08-22T10:12:58.880Z,1011.10
2018-08-22T10:14:51.635Z,1011.08
2018-08-22T10:15:51.494Z,1011.03
2018-08-22T10:17:44.234Z,1011.04
2018-08-22T10:18:44.823Z,1011.00
2018-08-22T10:20:36.933Z,1010.98
2018-08-22T10:21:36.694Z,1010.97
2018-08-22T10:23:30.072Z,1010.94
2018-08-22T10:24:29.310Z,1010.93
2018-08-22T10:26:21.994Z,1010.88
2018-08-22T10:27:21.892Z,1010.89
2018-08-22T10:29:15.287Z,1010.86
2018-08-22T10:30:16.234Z,1010.85
2018-08-22T10:32:07.183Z,1010.82
2018-08-22T10:33:07.124Z,1010.82
2018-08-22T10:34:59.836Z,1010.89
2018-08-22T10:38:19.315Z,1010.88
2018-08-22T10:38:39.936Z,1010.81
2018-08-22T10:40:34.425Z,1010.77
2018-08-22T10:41:32.494Z,1010.76
2018-08-22T10:43:25.237Z,1010.83
2018-08-22T10:44:25.206Z,1010.80
2018-08-22T10:46:17.724Z,1010.87
2018-08-22T10:47:17.594Z,1010.84
2018-08-22T10:49:10.411Z,1010.85
2018-08-22T10:50:10.278Z,1010.86
2018-08-22T10:52:02.937Z,1010.83
2018-08-22T10:53:02.835Z,1010.83
2018-08-22T10:54:55.689Z,1010.82
2018-08-22T10:55:55.499Z,1010.82
2018-08-22T10:57:48.238Z,1010.83
2018-08-22T10:58:48.013Z,1010.80
2018-08-22T11:00:40.711Z,1010.83
2018-08-22T11:01:40.611Z,1010.75
2018-08-22T11:03:33.336Z,1010.77
2018-08-22T11:04:33.220Z,1010.80
2018-08-22T11:06:25.920Z,1010.81
2018-08-22T11:07:25.821Z,1010.77
2018-08-22T11:09:18.535Z,1010.78
2018-08-22T11:10:18.426Z,1010.76
2018-08-22T11:12:11.123Z,1010.73
2018-08-22T11:13:11.025Z,1010.76
2018-08-22T11:15:03.736Z,1010.79
2018-08-22T11:16:03.684Z,1010.74
2018-08-22T11:17:56.345Z,1010.74
2018-08-22T11:18:56.232Z,1010.73
2018-08-22T11:20:48.921Z,1010.69
2018-08-22T11:21:48.834Z,1010.70
2018-08-22T11:23:41.536Z,1010.68
2018-08-22T11:24:41.424Z,1010.66
2018-08-22T11:26:34.128Z,1010.63
2018-08-22T11:27:34.025Z,1010.58
2018-08-22T11:29:26.742Z,1010.57
2018-08-22T11:30:26.626Z,1010.60
2018-08-22T11:32:19.322Z,1010.58
2018-08-22T11:33:19.236Z,1010.54
2018-08-22T11:35:11.952Z,1010.55
2018-08-22T11:36:11.843Z,1010.55
2018-08-22T11:38:04.530Z,1010.48
2018-08-22T11:39:04.435Z,1010.51
2018-08-22T11:40:57.148Z,1010.52
2018-08-22T11:41:57.037Z,1010.51
2018-08-22T11:43:49.733Z,1010.49
2018-08-22T11:44:49.638Z,1010.51
2018-08-22T11:46:42.430Z,1010.51
2018-08-22T11:47:42.261Z,1010.51
2018-08-22T11:49:34.973Z,1010.45
2018-08-22T11:50:34.859Z,1010.42
2018-08-22T11:52:27.563Z,1010.47
2018-08-22T11:53:27.456Z,1010.45
2018-08-22T11:55:20.189Z,1010.41
2018-08-22T11:56:20.087Z,1010.45
2018-08-22T11:58:12.781Z,1010.44
2018-08-22T11:59:12.687Z,1010.42
2018-08-22T12:01:05.391Z,1010.37
2018-08-22T12:02:05.287Z,1010.42
2018-08-22T12:03:58.053Z,1010.34
2018-08-22T12:04:57.924Z,1010.32
2018-08-22T12:06:50.621Z,1010.31
2018-08-22T12:07:50.523Z,1010.34
2018-08-22T12:09:43.238Z,1010.32
2018-08-22T12:10:43.122Z,1010.27
2018-08-22T12:12:35.911Z,1010.27
2018-08-22T12:13:35.733Z,1010.32
2018-08-22T12:15:28.444Z,1010.24
2018-08-22T12:16:28.335Z,1010.28
2018-08-22T12:18:21.033Z,1010.31
2018-08-22T12:19:20.934Z,1010.33
2018-08-22T12:21:13.654Z,1010.29
2018-08-22T12:22:13.541Z,1010.26
2018-08-22T12:24:06.245Z,1010.21
2018-08-22T12:25:06.140Z,1010.19
2018-08-22T12:26:58.836Z,1010.20
2018-08-22T12:27:58.741Z,1010.15
2018-08-22T12:29:51.456Z,1010.16
2018-08-22T12:30:51.407Z,1010.19
2018-08-22T12:32:44.065Z,1010.13
2018-08-22T12:33:43.953Z,1010.15
2018-08-22T12:35:36.659Z,1010.13
2018-08-22T12:36:36.550Z,1010.14
2018-08-22T12:38:29.244Z,1010.11
2018-08-22T12:39:29.151Z,1010.10
2018-08-22T12:41:21.865Z,1010.05
2018-08-22T12:42:21.882Z,1010.08
2018-08-22T12:44:14.469Z,1010.04
2018-08-22T12:45:14.352Z,1010.01
2018-08-22T12:47:07.055Z,1010.03
2018-08-22T12:48:06.966Z,1009.98
2018-08-22T12:49:59.681Z,1009.98
2018-08-22T12:50:59.564Z,1010.01
2018-08-22T12:52:52.262Z,1010.03
2018-08-22T12:53:52.200Z,1010.01
2018-08-22T12:55:44.882Z,1009.96
2018-08-22T12:56:44.760Z,1009.95
2018-08-22T12:58:37.467Z,1009.91
2018-08-22T12:59:37.391Z,1009.90
2018-08-22T13:01:30.135Z,1009.90
2018-08-22T13:02:29.973Z,1009.96
2018-08-22T13:04:22.681Z,1009.89
2018-08-22T13:05:22.584Z,1009.90
2018-08-22T13:07:15.269Z,1009.92
2018-08-22T13:08:15.176Z,1009.93
2018-08-22T13:10:07.895Z,1009.87
2018-08-22T13:11:07.861Z,1009.90
2018-08-22T13:13:00.475Z,1009.91
2018-08-22T13:14:00.379Z,1009.82
2018-08-22T13:15:53.090Z,1009.81
2018-08-22T13:16:53.045Z,1009.83
2018-08-22T13:18:45.689Z,1009.80
2018-08-22T13:19:45.589Z,1009.83
2018-08-22T13:21:38.305Z,1009.80
2018-08-22T13:22:38.188Z,1009.79
2018-08-22T13:24:30.931Z,1009.80
2018-08-22T13:25:30.793Z,1009.79
2018-08-22T13:27:23.494Z,1009.78
2018-08-22T13:28:23.401Z,1009.79
2018-08-22T13:30:16.156Z,1009.75
2018-08-22T13:31:15.997Z,1009.73
2018-08-22T13:33:09.203Z,1009.75
2018-08-22T13:34:08.868Z,1009.72
2018-08-22T13:36:01.580Z,1009.74
2018-08-22T13:37:01.470Z,1009.70
2018-08-22T13:38:54.172Z,1009.67
2018-08-22T13:39:54.068Z,1009.69
2018-08-22T13:41:46.789Z,1009.63
2018-08-22T13:42:46.736Z,1009.55
2018-08-22T13:44:39.388Z,1009.53
2018-08-22T13:45:39.340Z,1009.54
2018-08-22T13:47:31.973Z,1009.46
2018-08-22T13:48:31.877Z,1009.55
2018-08-22T13:50:24.588Z,1009.54
2018-08-22T13:51:24.482Z,1009.49
2018-08-22T13:53:17.184Z,1009.55
2018-08-22T13:54:17.082Z,1009.56
2018-08-22T13:56:09.877Z,1009.55
2018-08-22T13:57:09.682Z,1009.55
2018-08-22T13:59:02.401Z,1009.52
2018-08-22T14:00:02.289Z,1009.54
2018-08-22T14:01:55.024Z,1009.58
2018-08-22T14:02:54.890Z,1009.57
2018-08-22T14:04:47.595Z,1009.62
2018-08-22T14:05:47.487Z,1009.56
2018-08-22T14:07:40.193Z,1009.62
2018-08-22T14:08:40.096Z,1009.61
2018-08-22T14:10:32.827Z,1009.54
2018-08-22T14:11:32.706Z,1009.53
2018-08-22T14:13:25.402Z,1009.57
2018-08-22T14:14:25.310Z,1009.55
2018-08-22T14:16:18.035Z,1009.57
2018-08-22T14:17:17.917Z,1009.56
2018-08-22T14:19:10.639Z,1009.53
2018-08-22T14:20:10.524Z,1009.54
2018-08-22T14:22:03.221Z,1009.56
2018-08-22T14:23:03.128Z,1009.51
2018-08-22T14:24:55.847Z,1009.47
2018-08-22T14:25:55.741Z,1009.46
2018-08-22T14:27:48.436Z,1009.46
2018-08-22T14:28:48.336Z,1009.42
2018-08-22T14:30:41.049Z,1009.44
2018-08-22T14:31:40.944Z,1009.37
2018-08-22T14:33:33.714Z,1009.42
2018-08-22T14:34:33.547Z,1009.39
2018-08-22T14:36:26.266Z,1009.38
2018-08-22T14:37:26.159Z,1009.39
2018-08-22T14:39:18.916Z,1009.44
2018-08-22T14:40:18.766Z,1009.43
2018-08-22T14:42:11.467Z,1009.39
2018-08-22T14:43:11.422Z,1009.37
2018-08-22T14:45:04.089Z,1009.36
2018-08-22T14:46:03.972Z,1009.40
2018-08-22T14:47:56.667Z,1009.36
2018-08-22T14:48:56.577Z,1009.39
2018-08-22T14:50:49.305Z,1009.38
2018-08-22T14:51:49.186Z,1009.38
2018-08-22T14:53:41.883Z,1009.35
2018-08-22T14:54:41.789Z,1009.39
2018-08-22T14:56:34.592Z,1009.37
2018-08-22T14:57:34.384Z,1009.36
2018-08-22T14:59:27.104Z,1009.37
2018-08-22T15:00:26.990Z,1009.36
2018-08-22T15:02:19.783Z,1009.34
2018-08-22T15:03:19.785Z,1009.34
2018-08-22T15:05:12.308Z,1009.29
2018-08-22T15:06:12.197Z,1009.32
2018-08-22T15:08:04.902Z,1009.33
2018-08-22T15:09:04.827Z,1009.33
2018-08-22T15:10:57.535Z,1009.35
2018-08-22T15:11:57.413Z,1009.33
2018-08-22T15:13:50.118Z,1009.32
2018-08-22T15:14:50.029Z,1009.32
2018-08-22T15:16:42.745Z,1009.32
2018-08-22T15:17:42.646Z,1009.26
2018-08-22T15:19:35.377Z,1009.25
2018-08-22T15:20:35.244Z,1009.22
2018-08-22T15:22:27.959Z,1009.24
2018-08-22T15:23:27.847Z,1009.28
2018-08-22T15:25:20.562Z,1009.28
2018-08-22T15:26:20.447Z,1009.27
2018-08-22T15:28:13.162Z,1009.28
2018-08-22T15:29:13.045Z,1009.28
2018-08-22T15:31:05.764Z,1009.30
2018-08-22T15:32:05.655Z,1009.23
2018-08-22T15:33:58.403Z,1009.20
2018-08-22T15:34:58.254Z,1009.24
2018-08-22T15:36:50.971Z,1009.19
2018-08-22T15:37:50.855Z,1009.22
2018-08-22T15:39:43.573Z,1009.24
2018-08-22T15:40:43.467Z,1009.28
2018-08-22T15:42:36.157Z,1009.23
2018-08-22T15:43:36.058Z,1009.22
2018-08-22T15:45:28.792Z,1009.15
2018-08-22T15:46:28.664Z,1009.17
2018-08-22T15:48:21.367Z,1009.17
2018-08-22T15:49:21.265Z,1009.17
2018-08-22T15:51:13.987Z,1009.18
2018-08-22T15:52:13.878Z,1009.14
2018-08-22T15:54:06.572Z,1009.14
2018-08-22T15:55:06.473Z,1009.10
2018-08-22T15:56:59.192Z,1009.09
2018-08-22T15:57:59.080Z,1009.09
2018-08-22T15:59:51.810Z,1009.05
2018-08-22T16:00:51.694Z,1009.05
2018-08-22T16:02:44.447Z,1009.04
2018-08-22T16:03:44.354Z,1009.02
2018-08-22T16:05:37.066Z,1009.01
2018-08-22T16:06:36.949Z,1008.99
2018-08-22T16:08:29.650Z,1009.03
2018-08-22T16:09:29.560Z,1008.99
2018-08-22T16:11:22.274Z,1009.04
2018-08-22T16:12:22.153Z,1009.05
2018-08-22T16:14:14.858Z,1008.98
2018-08-22T16:15:14.766Z,1008.96
2018-08-22T16:17:07.476Z,1008.99
2018-08-22T16:18:07.359Z,1008.98
2018-08-22T16:20:00.075Z,1008.92
2018-08-22T16:20:59.965Z,1008.94
2018-08-22T16:22:52.660Z,1008.93
2018-08-22T16:23:52.563Z,1008.90
2018-08-22T16:25:45.273Z,1008.93
2018-08-22T16:26:45.162Z,1008.90
2018-08-22T16:28:37.862Z,1008.89
2018-08-22T16:29:37.771Z,1008.88
2018-08-22T16:31:30.475Z,1008.89
2018-08-22T16:32:30.363Z,1008.86
2018-08-22T16:34:23.067Z,1008.86
2018-08-22T16:35:22.975Z,1008.88
2018-08-22T16:37:15.676Z,1008.90
2018-08-22T16:38:15.559Z,1008.89
2018-08-22T16:40:08.285Z,1008.96
2018-08-22T16:41:08.165Z,1008.92
2018-08-22T16:43:00.860Z,1008.93
2018-08-22T16:44:00.762Z,1008.91
2018-08-22T16:45:53.479Z,1008.90
2018-08-22T16:46:53.365Z,1008.88
2018-08-22T16:48:46.075Z,1008.87
2018-08-22T16:49:45.981Z,1008.85
2018-08-22T16:51:38.705Z,1008.86
2018-08-22T16:52:38.591Z,1008.84
2018-08-22T16:54:31.296Z,1008.81
2018-08-22T16:55:31.192Z,1008.83
2018-08-22T16:57:23.914Z,1008.77
2018-08-22T16:58:23.895Z,1008.76
2018-08-22T17:00:16.507Z,1008.79
2018-08-22T17:01:16.394Z,1008.78
2018-08-22T17:03:09.178Z,1008.78
2018-08-22T17:04:08.987Z,1008.76
2018-08-22T17:06:01.701Z,1008.72
2018-08-22T17:07:01.588Z,1008.79
2018-08-22T17:08:54.277Z,1008.76
2018-08-22T17:09:54.178Z,1008.78
2018-08-22T17:11:46.896Z,1008.83
2018-08-22T17:12:46.786Z,1008.82
2018-08-22T17:14:39.483Z,1008.83
2018-08-22T17:15:39.378Z,1008.85
2018-08-22T17:17:32.094Z,1008.80
2018-08-22T17:18:31.985Z,1008.85
2018-08-22T17:20:24.690Z,1008.88
2018-08-22T17:21:24.578Z,1008.82
2018-08-22T17:23:17.350Z,1008.84
2018-08-22T17:24:17.176Z,1008.85
2018-08-22T17:26:09.924Z,1008.85
2018-08-22T17:27:09.792Z,1008.82
2018-08-22T17:29:02.466Z,1008.95
2018-08-22T17:30:02.365Z,1008.94
2018-08-22T17:31:55.097Z,1008.91
2018-08-22T17:32:55.004Z,1008.94
2018-08-22T17:34:47.671Z,1008.91
2018-08-22T17:35:47.587Z,1008.90
2018-08-22T17:37:40.285Z,1008.89
2018-08-22T17:38:40.172Z,1008.91
2018-08-22T17:40:32.882Z,1008.87
2018-08-22T17:41:32.786Z,1008.89
2018-08-22T17:43:25.460Z,1008.84
2018-08-22T17:44:25.358Z,1008.90
2018-08-22T17:46:18.067Z,1008.91
2018-08-22T17:47:17.958Z,1008.89
2018-08-22T17:49:10.653Z,1008.92
2018-08-22T17:50:10.557Z,1008.89
2018-08-22T17:52:03.268Z,1008.97
2018-08-22T17:53:03.146Z,1009.02
2018-08-22T17:54:55.840Z,1008.99
2018-08-22T17:55:55.738Z,1009.01
2018-08-22T17:57:48.452Z,1009.05
2018-08-22T17:58:48.331Z,1009.01
2018-08-22T18:00:41.051Z,1009.03
2018-08-22T18:01:40.932Z,1009.04
2018-08-22T18:03:33.622Z,1008.99
2018-08-22T18:04:33.525Z,1009.04
2018-08-22T18:06:26.324Z,1009.04
2018-08-22T18:07:26.116Z,1009.02
2018-08-22T18:09:18.820Z,1009.03
2018-08-22T18:10:18.727Z,1009.04
2018-08-22T18:12:11.417Z,1009.02
2018-08-22T18:13:11.301Z,1009.02
2018-08-22T18:15:04.038Z,1009.08
2018-08-22T18:16:03.905Z,1009.06
2018-08-22T18:17:56.594Z,1009.10
2018-08-22T18:18:56.492Z,1009.12
2018-08-22T18:20:49.207Z,1009.10
2018-08-22T18:21:49.093Z,1009.11
2018-08-22T18:23:41.790Z,1009.10
2018-08-22T18:24:41.692Z,1009.14
2018-08-22T18:26:34.405Z,1009.13
2018-08-22T18:27:34.343Z,1009.14
2018-08-22T18:29:26.986Z,1009.15
2018-08-22T18:30:26.885Z,1009.16
2018-08-22T18:32:19.592Z,1009.18
2018-08-22T18:33:19.472Z,1009.20
2018-08-22T18:35:12.173Z,1009.19
2018-08-22T18:36:12.133Z,1009.24
2018-08-22T18:38:04.787Z,1009.26
2018-08-22T18:39:04.665Z,1009.23
2018-08-22T18:40:57.376Z,1009.27
2018-08-22T18:41:57.253Z,1009.30
2018-08-22T18:43:49.944Z,1009.31
2018-08-22T18:44:49.867Z,1009.32
2018-08-22T18:46:42.559Z,1009.32
2018-08-22T18:47:42.443Z,1009.36
2018-08-22T18:49:35.140Z,1009.35
2018-08-22T18:50:35.030Z,1009.38
2018-08-22T18:52:27.742Z,1009.42
2018-08-22T18:53:27.627Z,1009.44
2018-08-22T18:55:20.322Z,1009.42
2018-08-22T18:56:20.223Z,1009.42
2018-08-22T18:58:12.934Z,1009.39
2018-08-22T18:59:12.826Z,1009.42
2018-08-22T19:01:05.531Z,1009.47
2018-08-22T19:02:05.414Z,1009.52
2018-08-22T19:03:58.103Z,1009.53
2018-08-22T19:04:58.011Z,1009.52
2018-08-22T19:06:50.714Z,1009.54
2018-08-22T19:07:50.603Z,1009.52
2018-08-22T19:09:43.288Z,1009.57
2018-08-22T19:10:43.187Z,1009.57
2018-08-22T19:12:35.891Z,1009.57
2018-08-22T19:13:35.785Z,1009.57
2018-08-22T19:15:28.477Z,1009.56
2018-08-22T19:16:28.378Z,1009.59
2018-08-22T19:18:21.082Z,1009.59
2018-08-22T19:19:20.968Z,1009.62
2018-08-22T19:21:13.672Z,1009.59
2018-08-22T19:22:13.561Z,1009.65
2018-08-22T19:24:06.259Z,1009.60
2018-08-22T19:25:06.161Z,1009.63
2018-08-22T19:26:58.861Z,1009.62
2018-08-22T19:27:58.752Z,1009.63
2018-08-22T19:29:51.448Z,1009.61
2018-08-22T19:30:51.350Z,1009.65
2018-08-22T19:32:44.048Z,1009.66
2018-08-22T19:33:43.931Z,1009.69
2018-08-22T19:35:36.651Z,1009.67
2018-08-22T19:36:36.621Z,1009.68
2018-08-22T19:38:29.382Z,1009.67
2018-08-22T19:39:29.116Z,1009.70
2018-08-22T19:41:21.824Z,1009.68
2018-08-22T19:42:21.708Z,1009.65
2018-08-22T19:44:14.401Z,1009.65
2018-08-22T19:45:14.292Z,1009.72
2018-08-22T19:47:07.000Z,1009.68
2018-08-22T19:48:06.885Z,1009.72
2018-08-22T19:49:59.572Z,1009.78
2018-08-22T19:50:59.478Z,1009.76
2018-08-22T19:52:52.182Z,1009.80
2018-08-22T19:53:52.069Z,1009.82
2018-08-22T19:55:44.757Z,1009.81
2018-08-22T19:56:44.650Z,1009.83
2018-08-22T19:58:37.363Z,1009.81
2018-08-22T19:59:37.244Z,1009.84
2018-08-22T20:01:29.968Z,1009.81
2018-08-22T20:02:29.848Z,1009.84
2018-08-22T20:04:22.551Z,1009.84
2018-08-22T20:05:22.448Z,1009.85
2018-08-22T20:07:15.161Z,1009.85
2018-08-22T20:08:15.040Z,1009.83
2018-08-22T20:10:07.732Z,1009.82
2018-08-22T20:11:07.632Z,1009.85
2018-08-22T20:13:00.341Z,1009.84
2018-08-22T20:14:00.228Z,1009.82
2018-08-22T20:15:52.908Z,1009.83
2018-08-22T20:16:52.852Z,1009.81
2018-08-22T20:18:45.517Z,1009.84
2018-08-22T20:19:45.403Z,1009.87
2018-08-22T20:21:38.113Z,1009.88
2018-08-22T20:22:37.991Z,1009.91
2018-08-22T20:24:30.749Z,1009.89
2018-08-22T20:25:30.584Z,1009.91
2018-08-22T20:27:23.301Z,1009.93
2018-08-22T20:28:23.187Z,1009.92
2018-08-22T20:30:15.904Z,1009.93
2018-08-22T20:31:15.776Z,1009.94
2018-08-22T20:33:08.483Z,1009.98
2018-08-22T20:34:08.364Z,1009.98
2018-08-22T20:36:01.051Z,1009.95
2018-08-22T20:37:00.948Z,1009.95
2018-08-22T20:38:53.657Z,1009.95
2018-08-22T20:39:53.538Z,1009.98
2018-08-22T20:41:46.263Z,1009.95
2018-08-22T20:42:46.157Z,1009.98
2018-08-22T20:44:38.813Z,1009.96
2018-08-22T20:45:38.711Z,1009.95
2018-08-22T20:47:31.411Z,1009.95
2018-08-22T20:48:31.297Z,1009.94
2018-08-22T20:50:23.986Z,1009.91
2018-08-22T20:51:23.885Z,1009.93
2018-08-22T20:53:16.595Z,1009.94
2018-08-22T20:54:16.472Z,1009.93
2018-08-22T20:56:09.167Z,1009.92
2018-08-22T20:57:09.071Z,1009.93
2018-08-22T20:59:01.781Z,1009.93
2018-08-22T21:00:01.659Z,1009.90
2018-08-22T21:01:54.345Z,1009.90
2018-08-22T21:02:54.294Z,1009.92
2018-08-22T21:04:46.949Z,1009.94
2018-08-22T21:05:46.832Z,1009.97
2018-08-22T21:07:39.550Z,1009.96
2018-08-22T21:08:39.475Z,1010.00
2018-08-22T21:10:32.111Z,1009.98
2018-08-22T21:11:32.012Z,1009.96
2018-08-22T21:13:24.718Z,1010.02
2018-08-22T21:14:24.615Z,1010.00
2018-08-22T21:16:17.285Z,1010.02
2018-08-22T21:17:17.196Z,1010.03
2018-08-22T21:19:09.895Z,1010.03
2018-08-22T21:20:09.783Z,1010.05
2018-08-22T21:22:02.462Z,1010.03
2018-08-22T21:23:02.361Z,1010.07
2018-08-22T21:24:55.134Z,1010.07